createdAt,value
2018-06-03T00:00:17.329Z,4.13
2018-06-03T00:03:41.705Z,3.83
2018-06-03T00:07:06.452Z,4.00
2018-06-03T00:10:31.178Z,3.43
2018-06-03T00:13:55.930Z,3.80
2018-06-03T00:17:20.665Z,4.00
2018-06-03T00:21:56.678Z,4.00
2018-06-03T00:25:21.434Z,3.63
2018-06-03T00:28:46.190Z,3.97
2018-06-03T00:32:11.032Z,4.20
2018-06-03T00:35:51.299Z,3.97
2018-06-03T00:39:16.142Z,3.53
2018-06-03T00:42:40.886Z,4.20
2018-06-03T00:46:05.782Z,4.43
2018-06-03T00:49:30.514Z,4.00
2018-06-03T00:52:55.204Z,3.73
2018-06-03T00:56:36.312Z,4.67
2018-06-03T01:00:01.103Z,4.97
2018-06-03T01:03:25.927Z,3.93
2018-06-03T01:06:50.844Z,4.40
2018-06-03T01:10:15.575Z,4.00
2018-06-03T01:13:39.905Z,4.00
2018-06-03T01:17:04.618Z,4.17
2018-06-03T01:20:29.373Z,4.20
2018-06-03T01:23:54.268Z,4.80
2018-06-03T01:27:19.127Z,4.30
2018-06-03T01:30:43.968Z,4.17
2018-06-03T01:34:08.742Z,4.70
2018-06-03T01:37:33.572Z,3.70
2018-06-03T01:40:58.405Z,4.30
2018-06-03T01:44:23.252Z,4.30
2018-06-03T01:47:47.961Z,4.20
2018-06-03T01:51:12.425Z,4.30
2018-06-03T01:54:37.272Z,4.50
2018-06-03T01:58:02.081Z,5.00
2018-06-03T02:01:26.794Z,4.63
2018-06-03T02:04:51.633Z,4.70
2018-06-03T02:08:16.457Z,4.43
2018-06-03T02:11:41.151Z,4.50
2018-06-03T02:15:05.894Z,4.57
2018-06-03T02:18:30.656Z,4.20
2018-06-03T02:21:55.404Z,4.87
2018-06-03T02:25:20.213Z,5.10
2018-06-03T02:28:45.011Z,4.90
2018-06-03T02:32:09.793Z,4.70
2018-06-03T02:35:34.555Z,4.97
2018-06-03T02:38:58.966Z,4.90
2018-06-03T02:42:23.857Z,5.00
2018-06-03T02:45:49.613Z,5.00
2018-06-03T02:49:14.235Z,4.70
2018-06-03T02:52:39.144Z,5.07
2018-06-03T02:56:04.141Z,5.00
2018-06-03T02:59:29.000Z,4.90
2018-06-03T03:02:53.488Z,4.47
2018-06-03T03:06:18.306Z,5.20
2018-06-03T03:09:43.320Z,4.33
2018-06-03T03:13:08.143Z,4.80
2018-06-03T03:16:32.941Z,5.67
2018-06-03T03:19:57.940Z,5.20
2018-06-03T03:23:22.852Z,5.47
2018-06-03T03:26:47.690Z,4.80
2018-06-03T03:30:12.457Z,5.10
2018-06-03T03:33:37.317Z,5.20
2018-06-03T03:37:02.140Z,4.83
2018-06-03T03:40:27.272Z,4.90
2018-06-03T03:43:52.200Z,4.60
2018-06-03T03:47:17.208Z,5.50
2018-06-03T03:50:42.112Z,5.37
2018-06-03T03:54:07.140Z,5.07
2018-06-03T03:57:31.918Z,4.70
2018-06-03T04:00:56.291Z,5.10
2018-06-03T04:04:21.042Z,5.33
2018-06-03T04:07:45.409Z,5.30
2018-06-03T04:11:10.100Z,5.70
2018-06-03T04:14:34.807Z,5.60
2018-06-03T04:17:59.509Z,5.50
2018-06-03T04:21:24.448Z,5.50
2018-06-03T04:24:49.196Z,5.50
2018-06-03T04:28:13.570Z,5.33
2018-06-03T04:31:38.411Z,5.47
2018-06-03T04:35:03.098Z,6.03
2018-06-03T04:38:27.886Z,5.70
2018-06-03T04:41:52.624Z,5.77
2018-06-03T04:45:17.027Z,5.43
2018-06-03T04:48:41.840Z,5.57
2018-06-03T04:52:06.492Z,5.87
2018-06-03T04:55:30.772Z,6.37
2018-06-03T04:58:55.661Z,5.40
2018-06-03T05:02:20.305Z,5.80
2018-06-03T05:05:45.042Z,6.93
2018-06-03T05:09:09.448Z,6.27
2018-06-03T05:12:34.720Z,5.80
2018-06-03T05:15:59.054Z,6.23
2018-06-03T05:19:23.548Z,6.60
2018-06-03T05:22:48.264Z,6.70
2018-06-03T05:26:12.995Z,6.50
2018-06-03T05:29:38.017Z,6.20
2018-06-03T05:33:02.742Z,6.77
2018-06-03T05:36:27.091Z,6.50
2018-06-03T05:39:51.752Z,6.37
2018-06-03T05:43:16.546Z,6.77
2018-06-03T05:46:40.998Z,6.13
2018-06-03T05:50:05.423Z,6.97
2018-06-03T05:53:30.165Z,7.20
2018-06-03T05:56:54.973Z,7.23
2018-06-03T06:00:19.664Z,7.63
2018-06-03T06:03:44.426Z,6.97
2018-06-03T06:07:09.283Z,7.20
2018-06-03T06:10:33.969Z,7.87
2018-06-03T06:13:58.638Z,7.43
2018-06-03T06:17:23.716Z,6.40
2018-06-03T06:20:48.132Z,7.17
2018-06-03T06:24:13.142Z,7.60
2018-06-03T06:27:37.556Z,7.57
2018-06-03T06:31:02.303Z,7.80
2018-06-03T06:34:26.915Z,7.70
2018-06-03T06:37:51.630Z,8.80
2018-06-03T06:41:16.349Z,7.63
2018-06-03T06:44:40.837Z,8.23
2018-06-03T06:48:05.416Z,7.13
2018-06-03T06:51:30.123Z,7.77
2018-06-03T06:54:54.765Z,7.30
2018-06-03T06:58:19.431Z,7.80
2018-06-03T07:01:44.236Z,7.17
2018-06-03T07:05:08.976Z,8.17
2018-06-03T07:08:33.949Z,7.50
2018-06-03T07:11:58.846Z,7.87
2018-06-03T07:15:23.712Z,7.43
2018-06-03T07:18:48.502Z,7.43
2018-06-03T07:22:13.240Z,7.00
2018-06-03T07:25:37.933Z,7.93
2018-06-03T07:29:02.414Z,8.03
2018-06-03T07:32:27.143Z,6.83
2018-06-03T07:35:51.894Z,7.80
2018-06-03T07:39:16.660Z,7.43
2018-06-03T07:42:42.011Z,7.43
2018-06-03T07:46:06.438Z,6.33
2018-06-03T07:57:25.308Z,6.23
2018-06-03T08:00:50.077Z,6.37
2018-06-03T08:04:14.690Z,6.77
2018-06-03T08:07:39.470Z,6.90
2018-06-03T08:11:04.266Z,7.27
2018-06-03T08:14:29.186Z,7.23
2018-06-03T08:17:53.963Z,7.10
2018-06-03T08:21:18.674Z,7.03
2018-06-03T08:24:43.434Z,6.93
2018-06-03T08:28:07.763Z,7.63
2018-06-03T08:31:32.434Z,6.30
2018-06-03T08:34:57.185Z,6.67
2018-06-03T08:38:21.769Z,6.23
2018-06-03T08:41:46.442Z,6.40
2018-06-03T08:45:11.155Z,6.90
2018-06-03T08:48:35.863Z,7.30
2018-06-03T08:52:00.561Z,6.77
2018-06-03T08:55:29.085Z,7.17
2018-06-03T08:58:54.097Z,7.53
2018-06-03T09:02:18.790Z,7.30
2018-06-03T09:05:43.622Z,7.00
2018-06-03T09:09:08.028Z,7.27
2018-06-03T09:12:32.803Z,7.10
2018-06-03T09:15:59.043Z,6.53
2018-06-03T09:19:23.867Z,6.47
2018-06-03T09:22:48.606Z,7.13
2018-06-03T09:26:13.343Z,6.43
2018-06-03T09:29:38.138Z,8.20
2018-06-03T09:33:02.499Z,6.97
2018-06-03T09:36:27.265Z,7.37
2018-06-03T09:39:52.093Z,6.83
2018-06-03T09:43:16.891Z,7.20
2018-06-03T09:46:41.732Z,7.10
2018-06-03T09:50:06.785Z,5.83
2018-06-03T09:53:31.535Z,6.20
2018-06-03T09:56:56.250Z,5.83
2018-06-03T10:00:25.149Z,5.97
2018-06-03T10:03:49.816Z,6.00
2018-06-03T10:07:14.957Z,6.20
2018-06-03T10:10:39.849Z,5.77
2018-06-03T10:14:04.684Z,5.50
2018-06-03T10:17:29.523Z,5.27
2018-06-03T10:20:54.294Z,5.57
2018-06-03T10:24:19.092Z,5.50
2018-06-03T10:27:43.905Z,4.53
2018-06-03T10:31:08.735Z,5.00
2018-06-03T10:34:33.829Z,5.70
2018-06-03T10:37:58.803Z,5.70
2018-06-03T10:41:23.819Z,5.17
2018-06-03T10:44:48.755Z,5.23
2018-06-03T10:48:13.265Z,5.13
2018-06-03T10:51:37.752Z,5.40
2018-06-03T10:55:02.602Z,5.07
2018-06-03T10:58:27.483Z,5.20
2018-06-03T11:01:51.933Z,5.30
2018-06-03T11:05:16.828Z,5.13
2018-06-03T11:08:41.659Z,5.40
2018-06-03T11:12:06.576Z,5.03
2018-06-03T11:15:31.445Z,5.40
2018-06-03T11:18:56.294Z,5.70
2018-06-03T11:22:21.280Z,4.80
2018-06-03T11:25:46.242Z,5.00
2018-06-03T11:29:11.238Z,4.73
2018-06-03T11:32:36.278Z,5.47
2018-06-03T11:36:00.652Z,4.63
2018-06-03T11:39:25.640Z,4.67
2018-06-03T11:42:50.422Z,4.70
2018-06-03T11:46:15.213Z,4.50
2018-06-03T11:49:39.914Z,4.60
2018-06-03T11:53:04.818Z,4.10
2018-06-03T11:56:40.293Z,4.40
2018-06-03T12:00:05.147Z,4.30
2018-06-03T12:03:30.007Z,4.13
2018-06-03T12:06:54.833Z,4.33
2018-06-03T12:10:20.295Z,4.13
2018-06-03T12:13:45.303Z,4.43
2018-06-03T12:18:34.537Z,4.27
2018-06-03T12:21:59.372Z,3.87
2018-06-03T12:25:24.275Z,3.67
2018-06-03T12:28:49.231Z,4.00
2018-06-03T12:32:13.960Z,4.00
2018-06-03T12:35:38.847Z,4.27
2018-06-03T12:39:04.352Z,3.57
2018-06-03T12:42:29.241Z,3.97
2018-06-03T12:45:54.074Z,3.73
2018-06-03T12:49:18.905Z,4.00
2018-06-03T12:52:43.732Z,3.30
2018-06-03T12:56:08.540Z,3.23
2018-06-03T12:59:33.791Z,3.80
2018-06-03T13:02:58.718Z,3.37
2018-06-03T13:06:24.401Z,3.37
2018-06-03T13:09:48.863Z,3.23
2018-06-03T13:13:14.035Z,3.10
2018-06-03T13:16:38.433Z,3.03
2018-06-03T13:20:03.303Z,3.63
2018-06-03T13:23:28.201Z,3.00
2018-06-03T13:27:18.328Z,3.03
2018-06-03T13:31:38.237Z,3.50
2018-06-03T13:35:03.017Z,3.20
2018-06-03T13:38:27.818Z,3.17
2018-06-03T13:41:52.813Z,3.10
2018-06-03T13:45:17.835Z,3.40
2018-06-03T13:48:42.771Z,3.00
2018-06-03T13:52:07.617Z,3.40
2018-06-03T13:55:33.198Z,3.53
2018-06-03T13:58:57.922Z,3.10
2018-06-03T14:02:22.725Z,3.33
2018-06-03T14:05:47.532Z,3.30
2018-06-03T14:09:12.387Z,3.20
2018-06-03T14:12:43.613Z,3.03
2018-06-03T14:16:08.339Z,3.63
2018-06-03T14:19:32.789Z,3.27
2018-06-03T14:22:57.605Z,3.50
2018-06-03T14:26:23.399Z,3.67
2018-06-03T14:29:48.340Z,3.30
2018-06-03T14:33:12.848Z,3.30
2018-06-03T14:36:37.586Z,3.60
2018-06-03T14:40:02.357Z,3.30
2018-06-03T14:43:27.054Z,3.30
2018-06-03T14:46:51.851Z,3.27
2018-06-03T14:50:16.569Z,3.07
2018-06-03T14:53:41.584Z,3.67
2018-06-03T14:57:06.315Z,3.60
2018-06-03T15:00:30.930Z,3.30
2018-06-03T15:03:55.665Z,3.27
2018-06-03T15:07:20.407Z,3.20
2018-06-03T15:10:45.098Z,3.23
2018-06-03T15:14:09.527Z,3.40
2018-06-03T15:17:34.249Z,3.20
2018-06-03T15:20:58.942Z,3.27
2018-06-03T15:24:25.105Z,3.60
2018-06-03T15:27:49.951Z,3.15
2018-06-03T15:31:14.669Z,3.12
2018-06-03T15:34:39.393Z,4.08
2018-06-03T15:38:04.114Z,3.20
2018-06-03T15:41:28.810Z,3.55
2018-06-03T15:44:53.708Z,2.83
2018-06-03T15:48:18.522Z,2.92
2018-06-03T15:51:43.715Z,3.10
2018-06-03T15:55:08.560Z,3.60
2018-06-03T15:58:33.347Z,3.27
2018-06-03T16:01:58.173Z,4.00
2018-06-03T16:05:23.189Z,3.90
2018-06-03T16:08:48.000Z,3.30
2018-06-03T16:12:25.295Z,4.10
2018-06-03T16:15:50.857Z,3.83
2018-06-03T16:19:15.794Z,3.35
2018-06-03T16:22:44.944Z,3.45
2018-06-03T16:26:09.899Z,4.30
2018-06-03T16:29:34.604Z,4.35
2018-06-03T16:32:59.306Z,3.90
2018-06-03T16:36:24.383Z,3.60
2018-06-03T16:39:49.251Z,4.25
2018-06-03T16:43:14.199Z,3.90
2018-06-03T16:46:39.278Z,4.08
2018-06-03T16:50:04.081Z,3.50
2018-06-03T16:53:29.479Z,3.60
2018-06-03T16:56:54.317Z,3.93
2018-06-03T17:00:19.044Z,4.27
2018-06-03T17:03:49.475Z,3.50
2018-06-03T17:07:18.498Z,4.10
2018-06-03T17:10:43.801Z,3.63
2018-06-03T17:14:09.987Z,4.20
2018-06-03T17:17:36.526Z,3.53
2018-06-03T17:21:01.958Z,3.50
2018-06-03T17:24:27.615Z,3.40
2018-06-03T17:27:54.919Z,3.50
2018-06-03T17:31:20.278Z,3.80
2018-06-03T17:34:50.632Z,3.33
2018-06-03T17:38:15.586Z,3.87
2018-06-03T17:41:40.713Z,4.77
2018-06-03T17:45:06.265Z,3.50
2018-06-03T17:48:31.866Z,3.17
2018-06-03T17:51:58.402Z,3.67
2018-06-03T17:55:22.954Z,3.20
2018-06-03T17:58:47.786Z,4.00
2018-06-03T18:02:12.614Z,3.50
2018-06-03T18:05:37.376Z,4.43
2018-06-03T18:09:02.209Z,3.90
2018-06-03T18:12:30.655Z,3.53
2018-06-03T18:15:55.530Z,4.33
2018-06-03T18:19:20.982Z,4.27
2018-06-03T18:22:47.361Z,3.40
2018-06-03T18:27:41.658Z,3.30
2018-06-03T18:31:07.294Z,3.90
2018-06-03T18:34:32.828Z,3.57
2018-06-03T18:37:59.952Z,3.40
2018-06-03T18:41:25.604Z,3.23
2018-06-03T18:44:52.180Z,3.50
2018-06-03T18:48:19.135Z,3.90
2018-06-03T18:51:44.873Z,3.23
2018-06-03T18:55:09.919Z,3.07
2018-06-03T18:58:34.664Z,3.57
2018-06-03T19:01:59.536Z,3.20
2018-06-03T19:05:24.704Z,3.40
2018-06-03T19:08:49.147Z,3.40
2018-06-03T19:12:27.294Z,3.13
2018-06-03T19:15:57.614Z,3.20
2018-06-03T19:19:22.771Z,3.20
2018-06-03T19:22:48.391Z,3.23
2018-06-03T19:26:15.090Z,3.03
2018-06-03T19:29:41.028Z,3.33
2018-06-03T19:33:08.500Z,3.30
2018-06-03T19:36:32.898Z,3.40
2018-06-03T19:39:57.997Z,3.00
2018-06-03T19:43:22.921Z,3.40
2018-06-03T19:46:47.742Z,3.10
2018-06-03T19:50:12.555Z,2.93
2018-06-03T19:53:37.293Z,3.20
2018-06-03T19:57:02.415Z,3.30
2018-06-03T20:00:30.006Z,3.10
2018-06-03T20:03:54.509Z,3.47
2018-06-03T20:07:19.199Z,3.10
2018-06-03T20:10:45.729Z,3.10
2018-06-03T20:14:11.010Z,3.17
2018-06-03T20:17:36.374Z,3.40
2018-06-03T20:21:01.532Z,3.57
2018-06-03T20:24:26.449Z,3.53
2018-06-03T20:27:50.974Z,3.63
2018-06-03T20:31:16.072Z,3.60
2018-06-03T20:34:41.038Z,3.97
2018-06-03T20:38:06.398Z,3.70
2018-06-03T20:41:33.661Z,3.57
2018-06-03T20:44:58.508Z,3.10
2018-06-03T20:48:23.470Z,3.30
2018-06-03T20:51:48.516Z,3.10
2018-06-03T20:55:13.285Z,3.20
2018-06-03T20:58:42.435Z,3.43
2018-06-03T21:02:11.321Z,3.40
2018-06-03T21:05:36.266Z,2.93
2018-06-03T21:09:00.772Z,3.30
2018-06-03T21:12:26.040Z,3.60
2018-06-03T21:15:51.095Z,3.53
2018-06-03T21:19:15.937Z,3.43
2018-06-03T21:22:40.876Z,3.17
2018-06-03T21:26:05.298Z,2.77
2018-06-03T21:29:30.215Z,3.17
2018-06-03T21:32:55.128Z,3.10
2018-06-03T21:36:19.885Z,3.33
2018-06-03T21:39:44.228Z,3.27
2018-06-03T21:43:09.055Z,3.63
2018-06-03T21:46:33.710Z,3.40
2018-06-03T21:49:58.674Z,3.87
2018-06-03T21:53:24.410Z,3.13
2018-06-03T21:56:49.084Z,3.27
2018-06-03T22:00:13.827Z,3.40
2018-06-03T22:03:39.156Z,3.10
2018-06-03T22:07:04.068Z,3.27
2018-06-03T22:10:28.843Z,3.30
2018-06-03T22:13:53.616Z,3.17
2018-06-03T22:17:18.511Z,3.07
2018-06-03T22:20:43.207Z,3.40
2018-06-03T22:24:07.888Z,2.90
2018-06-03T22:27:32.631Z,3.30
2018-06-03T22:30:57.413Z,3.57
2018-06-03T22:34:22.240Z,3.27
2018-06-03T22:37:47.093Z,3.50
2018-06-03T22:41:11.883Z,3.40
2018-06-03T22:44:36.680Z,3.60
2018-06-03T22:48:01.435Z,3.77
2018-06-03T22:51:26.145Z,3.60
2018-06-03T22:54:51.020Z,3.30
2018-06-03T22:58:15.812Z,3.50
2018-06-03T23:01:40.710Z,3.40
2018-06-03T23:05:05.292Z,3.57
2018-06-03T23:08:31.620Z,3.63
2018-06-03T23:11:56.395Z,3.73
2018-06-03T23:15:21.197Z,3.70
2018-06-03T23:18:45.690Z,3.47
2018-06-03T23:22:10.502Z,4.17
2018-06-03T23:25:35.234Z,4.10
2018-06-03T23:29:00.947Z,4.17
2018-06-03T23:32:25.675Z,3.60
2018-06-03T23:35:50.423Z,3.70
2018-06-03T23:39:15.169Z,3.90
2018-06-03T23:42:39.853Z,3.50
2018-06-03T23:46:04.578Z,3.50
2018-06-03T23:49:29.290Z,3.90
2018-06-03T23:52:54.110Z,4.17
2018-06-03T23:56:19.143Z,3.83
2018-06-03T23:59:44.027Z,3.87
